createdAt,value
2018-06-15T00:00:09.005Z,100512.18
2018-06-15T00:02:37.771Z,100510.41
2018-06-15T00:05:06.368Z,100516.15
2018-06-15T00:07:34.877Z,100511.71
2018-06-15T00:10:03.321Z,100508.61
2018-06-15T00:12:32.126Z,100515.67
2018-06-15T00:15:00.654Z,100517.43
2018-06-15T00:17:29.099Z,100521.38
2018-06-15T00:19:57.555Z,100515.63
2018-06-15T00:22:26.333Z,100513.86
2018-06-15T00:24:54.764Z,100512.95
2018-06-15T00:27:23.223Z,100506.77
2018-06-15T00:29:51.656Z,100475.06
2018-06-15T00:32:20.130Z,100503.64
2018-06-15T00:34:48.831Z,100498.78
2018-06-15T00:37:17.437Z,100497.89
2018-06-15T00:39:45.873Z,100496.55
2018-06-15T00:42:14.613Z,100502.73
2018-06-15T00:44:43.846Z,100500.08
2018-06-15T00:47:12.287Z,100506.70
2018-06-15T00:49:40.809Z,100503.61
2018-06-15T00:52:09.425Z,100503.61
2018-06-15T00:54:37.892Z,100503.61
2018-06-15T00:57:17.745Z,100504.48
2018-06-15T00:59:46.257Z,100498.72
2018-06-15T01:02:14.698Z,100508.84
2018-06-15T01:04:43.482Z,100501.76
2018-06-15T01:07:11.975Z,100500.44
2018-06-15T01:09:40.427Z,100503.95
2018-06-15T01:12:09.265Z,100501.30
2018-06-15T01:14:37.821Z,100500.83
2018-06-15T01:17:06.304Z,100491.54
2018-06-15T01:19:34.841Z,100498.59
2018-06-15T01:22:04.578Z,100491.52
2018-06-15T01:24:33.023Z,100492.41
2018-06-15T01:27:01.993Z,100489.31
2018-06-15T01:29:30.684Z,100411.48
2018-06-15T01:31:59.119Z,100500.37
2018-06-15T01:34:27.848Z,100503.01
2018-06-15T01:36:56.781Z,100497.27
2018-06-15T01:39:25.257Z,100501.23
2018-06-15T01:41:54.030Z,100504.77
2018-06-15T01:44:23.821Z,100504.77
2018-06-15T01:46:52.322Z,100510.97
2018-06-15T01:49:20.911Z,100510.95
2018-06-15T01:51:49.409Z,100513.62
2018-06-15T01:54:17.862Z,100517.16
2018-06-15T01:56:46.361Z,100521.11
2018-06-15T01:59:15.231Z,100518.92
2018-06-15T02:01:43.842Z,100524.66
2018-06-15T02:04:12.314Z,100523.75
2018-06-15T02:06:40.746Z,100525.09
2018-06-15T02:09:10.118Z,100536.16
2018-06-15T02:11:38.577Z,100527.77
2018-06-15T02:14:07.399Z,100520.23
2018-06-15T02:16:36.541Z,100521.13
2018-06-15T02:19:04.998Z,100526.88
2018-06-15T02:21:33.450Z,100530.88
2018-06-15T02:24:02.086Z,100529.12
2018-06-15T02:26:30.966Z,100541.06
2018-06-15T02:28:59.430Z,100563.17
2018-06-15T02:31:28.110Z,100532.66
2018-06-15T02:33:56.570Z,100529.13
2018-06-15T02:36:25.002Z,100545.94
2018-06-15T02:38:53.953Z,100507.69
2018-06-15T02:41:22.585Z,100532.23
2018-06-15T02:43:51.307Z,100538.86
2018-06-15T02:46:20.074Z,100535.33
2018-06-15T02:48:48.621Z,100536.67
2018-06-15T02:51:17.107Z,100537.55
2018-06-15T02:53:45.653Z,100536.22
2018-06-15T02:56:14.608Z,100538.00
2018-06-15T02:58:43.101Z,100548.19
2018-06-15T03:01:11.611Z,100542.46
2018-06-15T03:03:40.496Z,100550.41
2018-06-15T03:06:09.272Z,100543.77
2018-06-15T03:08:37.726Z,100544.72
2018-06-15T03:11:06.322Z,100556.68
2018-06-15T03:13:35.302Z,100551.83
2018-06-15T03:16:04.142Z,100555.80
2018-06-15T03:18:33.657Z,100553.16
2018-06-15T03:21:02.425Z,100551.38
2018-06-15T03:23:30.920Z,100556.70
2018-06-15T03:25:59.458Z,100562.90
2018-06-15T03:28:27.889Z,100573.54
2018-06-15T03:30:56.326Z,100562.51
2018-06-15T03:33:24.969Z,100565.62
2018-06-15T03:35:53.426Z,100577.56
2018-06-15T03:38:21.863Z,100574.95
2018-06-15T03:40:50.877Z,100577.16
2018-06-15T03:43:19.310Z,100583.32
2018-06-15T03:45:47.777Z,100584.23
2018-06-15T03:48:17.576Z,100588.25
2018-06-15T03:50:46.047Z,100589.16
2018-06-15T03:53:14.514Z,100590.05
2018-06-15T03:55:43.537Z,100594.06
2018-06-15T03:58:11.981Z,100599.83
2018-06-15T04:00:40.424Z,100608.23
2018-06-15T04:03:09.052Z,100606.48
2018-06-15T04:05:37.821Z,100612.67
2018-06-15T04:08:06.521Z,100609.16
2018-06-15T04:10:35.108Z,100610.50
2018-06-15T04:13:04.670Z,100615.37
2018-06-15T04:15:33.098Z,100618.48
2018-06-15T04:18:05.861Z,100628.22
2018-06-15T04:20:35.141Z,100621.17
2018-06-15T04:23:04.063Z,100624.72
2018-06-15T04:25:32.702Z,100631.35
2018-06-15T04:28:01.226Z,100631.80
2018-06-15T04:30:30.173Z,100629.60
2018-06-15T04:32:58.665Z,100623.42
2018-06-15T04:35:27.753Z,100622.09
2018-06-15T04:37:56.373Z,100637.10
2018-06-15T04:40:24.881Z,100627.83
2018-06-15T04:42:53.566Z,100652.56
2018-06-15T04:45:22.537Z,100634.02
2018-06-15T04:47:51.018Z,100638.86
2018-06-15T04:50:20.174Z,100634.45
2018-06-15T04:52:48.926Z,100646.37
2018-06-15T04:55:17.405Z,100637.53
2018-06-15T04:57:45.854Z,100639.30
2018-06-15T05:00:14.312Z,100646.81
2018-06-15T05:02:43.128Z,100638.42
2018-06-15T05:05:11.853Z,100642.84
2018-06-15T05:07:40.805Z,100644.17
2018-06-15T05:10:09.350Z,100650.79
2018-06-15T05:12:37.877Z,100647.69
2018-06-15T05:15:06.550Z,100648.56
2018-06-15T05:17:35.058Z,100650.77
2018-06-15T05:20:04.094Z,100648.09
2018-06-15T05:22:32.563Z,100658.67
2018-06-15T05:25:01.278Z,100656.00
2018-06-15T05:27:29.717Z,100659.08
2018-06-15T05:29:58.146Z,100653.34
2018-06-15T05:32:26.621Z,100669.24
2018-06-15T05:34:55.454Z,100663.48
2018-06-15T05:37:24.038Z,100665.66
2018-06-15T05:39:52.560Z,100673.17
2018-06-15T05:42:21.235Z,100678.50
2018-06-15T05:44:50.085Z,100688.25
2018-06-15T05:47:18.553Z,100707.25
2018-06-15T05:49:47.129Z,100699.31
2018-06-15T05:52:16.143Z,100688.28
2018-06-15T05:54:44.937Z,100593.88
2018-06-15T05:57:13.601Z,100692.23
2018-06-15T05:59:42.113Z,100683.81
2018-06-15T06:02:10.585Z,100692.20
2018-06-15T06:04:39.371Z,100695.30
2018-06-15T06:07:07.971Z,100706.28
2018-06-15T06:09:36.462Z,100732.77
2018-06-15T06:12:04.989Z,100727.88
2018-06-15T06:14:33.777Z,100715.98
2018-06-15T06:17:02.511Z,100717.78
2018-06-15T06:19:31.218Z,100722.64
2018-06-15T06:21:59.833Z,100722.64
2018-06-15T06:24:28.305Z,100724.37
2018-06-15T06:26:56.814Z,100726.55
2018-06-15T06:29:25.789Z,100722.10
2018-06-15T06:31:54.307Z,100730.08
2018-06-15T06:34:22.745Z,100740.71
2018-06-15T06:36:51.829Z,100730.55
2018-06-15T06:39:20.709Z,100732.76
2018-06-15T06:41:49.154Z,100742.00
2018-06-15T06:44:17.745Z,100731.38
2018-06-15T06:46:46.506Z,100729.09
2018-06-15T06:49:14.929Z,100725.09
2018-06-15T06:51:43.682Z,100730.39
2018-06-15T06:54:12.593Z,100739.23
2018-06-15T06:56:41.173Z,100728.63
2018-06-15T06:59:10.007Z,100741.41
2018-06-15T07:01:38.937Z,100732.09
2018-06-15T07:04:07.485Z,100740.44
2018-06-15T07:06:36.158Z,100733.77
2018-06-15T07:09:07.087Z,100730.23
2018-06-15T07:11:35.754Z,100748.84
2018-06-15T07:14:04.234Z,100730.67
2018-06-15T07:16:33.097Z,100736.77
2018-06-15T07:21:33.390Z,100753.06
2018-06-15T07:24:02.074Z,100752.11
2018-06-15T07:26:30.514Z,100742.29
2018-06-15T07:28:59.586Z,100466.45
2018-06-15T07:31:28.012Z,100748.28
2018-06-15T07:33:56.437Z,100753.47
2018-06-15T07:36:25.458Z,100762.65
2018-06-15T07:38:53.982Z,100752.66
2018-06-15T07:41:22.621Z,100753.60
2018-06-15T07:43:51.442Z,100765.09
2018-06-15T07:46:19.913Z,100757.46
2018-06-15T07:48:48.519Z,100774.62
2018-06-15T07:51:17.458Z,100763.92
2018-06-15T07:53:45.934Z,100776.64
2018-06-15T07:56:15.266Z,100772.91
2018-06-15T07:58:43.742Z,100769.57
2018-06-15T08:01:12.185Z,100783.25
2018-06-15T08:03:42.496Z,100783.52
2018-06-15T08:06:10.933Z,100783.02
2018-06-15T08:08:39.358Z,100792.06
2018-06-15T08:11:07.862Z,100790.84
2018-06-15T08:13:36.742Z,100625.91
2018-06-15T08:16:05.222Z,100798.41
2018-06-15T08:18:33.889Z,100795.92
2018-06-15T08:21:02.505Z,100783.56
2018-06-15T08:23:30.965Z,100780.34
2018-06-15T08:25:59.707Z,100774.09
2018-06-15T08:28:28.378Z,100785.33
2018-06-15T08:30:56.874Z,100779.20
2018-06-15T08:33:25.369Z,100777.77
2018-06-15T08:35:53.938Z,100782.15
2018-06-15T08:38:22.393Z,100792.61
2018-06-15T08:40:51.481Z,100773.02
2018-06-15T08:43:20.236Z,100804.83
2018-06-15T08:45:48.665Z,100809.05
2018-06-15T08:48:17.880Z,100812.89
2018-06-15T08:50:46.501Z,100812.86
2018-06-15T08:53:14.964Z,100808.91
2018-06-15T08:55:43.551Z,100816.90
2018-06-15T08:58:12.178Z,100811.20
2018-06-15T09:00:40.627Z,100819.61
2018-06-15T09:03:09.317Z,100833.19
2018-06-15T09:05:37.785Z,100839.73
2018-06-15T09:08:06.213Z,100830.73
2018-06-15T09:10:34.769Z,100823.47
2018-06-15T09:13:03.670Z,100845.25
2018-06-15T09:15:32.207Z,100839.59
2018-06-15T09:18:00.782Z,100860.92
2018-06-15T09:20:29.222Z,100830.76
2018-06-15T09:22:57.644Z,100834.69
2018-06-15T09:25:26.323Z,100839.31
2018-06-15T09:27:55.082Z,100831.48
2018-06-15T09:30:23.557Z,100838.68
2018-06-15T09:32:52.066Z,100845.20
2018-06-15T09:35:20.625Z,100846.16
2018-06-15T09:37:49.065Z,100846.98
2018-06-15T09:40:17.805Z,100850.86
2018-06-15T09:42:46.454Z,100844.33
2018-06-15T09:45:14.874Z,100850.66
2018-06-15T09:47:43.480Z,100853.76
2018-06-15T09:50:12.022Z,100856.10
2018-06-15T09:52:40.622Z,100845.50
2018-06-15T09:55:09.158Z,100847.39
2018-06-15T09:57:37.733Z,100849.47
2018-06-15T10:00:06.426Z,100856.98
2018-06-15T10:02:34.868Z,100717.22
2018-06-15T10:05:03.789Z,100867.81
2018-06-15T10:07:32.662Z,100857.44
2018-06-15T10:10:04.135Z,100849.38
2018-06-15T10:12:32.651Z,100855.28
2018-06-15T10:15:02.122Z,100857.62
2018-06-15T10:17:30.531Z,100863.79
2018-06-15T10:19:59.408Z,100857.41
2018-06-15T10:22:28.453Z,100877.87
2018-06-15T10:24:56.930Z,100879.28
2018-06-15T10:27:25.716Z,100905.20
2018-06-15T10:29:54.169Z,100873.68
2018-06-15T10:32:22.601Z,100895.09
2018-06-15T10:34:51.080Z,100870.73
2018-06-15T10:37:19.504Z,100882.64
2018-06-15T10:39:47.957Z,100877.63
2018-06-15T10:42:16.406Z,100878.64
2018-06-15T10:44:44.831Z,100885.75
2018-06-15T10:47:13.523Z,100869.88
2018-06-15T10:49:42.127Z,100907.63
2018-06-15T10:52:11.386Z,100874.08
2018-06-15T10:54:39.949Z,100893.49
2018-06-15T10:57:08.713Z,100897.45
2018-06-15T10:59:37.129Z,100893.55
2018-06-15T11:02:05.773Z,100919.04
2018-06-15T11:04:34.526Z,100888.22
2018-06-15T11:07:03.298Z,100892.30
2018-06-15T11:09:31.732Z,100900.38
2018-06-15T11:12:00.563Z,100902.68
2018-06-15T11:14:29.485Z,100892.88
2018-06-15T11:16:58.298Z,100920.44
2018-06-15T11:19:27.345Z,100884.05
2018-06-15T11:21:55.775Z,100914.20
2018-06-15T11:24:24.681Z,100916.38
2018-06-15T11:26:53.610Z,100906.61
2018-06-15T11:29:22.035Z,100911.73
2018-06-15T11:31:50.730Z,100923.98
2018-06-15T11:34:19.523Z,100914.98
2018-06-15T11:36:47.950Z,100921.86
2018-06-15T11:39:16.383Z,100935.89
2018-06-15T11:41:45.102Z,100926.26
2018-06-15T11:44:13.557Z,100923.33
2018-06-15T11:46:42.126Z,100926.50
2018-06-15T11:49:10.695Z,100928.44
2018-06-15T11:51:40.123Z,100931.08
2018-06-15T11:54:08.705Z,100919.30
2018-06-15T11:56:37.403Z,100935.80
2018-06-15T11:59:05.922Z,100931.91
2018-06-15T12:01:34.456Z,100920.95
2018-06-15T12:04:03.241Z,100931.77
2018-06-15T12:06:31.686Z,100922.83
2018-06-15T12:09:00.474Z,100938.89
2018-06-15T12:11:29.911Z,100946.56
2018-06-15T12:13:58.333Z,100939.73
2018-06-15T12:16:27.853Z,100931.50
2018-06-15T12:18:56.968Z,100946.04
2018-06-15T12:21:25.467Z,100945.19
2018-06-15T12:23:55.057Z,100942.25
2018-06-15T12:26:23.886Z,100947.81
2018-06-15T12:28:52.589Z,100946.38
2018-06-15T12:31:21.349Z,100938.23
2018-06-15T12:33:50.231Z,100952.77
2018-06-15T12:36:18.657Z,100949.95
2018-06-15T12:38:47.405Z,100961.27
2018-06-15T12:41:15.935Z,100947.63
2018-06-15T12:43:44.385Z,100950.40
2018-06-15T12:46:13.154Z,100945.95
2018-06-15T12:48:42.499Z,100963.17
2018-06-15T12:51:10.936Z,100953.50
2018-06-15T12:53:39.455Z,100971.58
2018-06-15T12:56:08.163Z,100963.66
2018-06-15T12:58:36.745Z,100971.51
2018-06-15T13:01:05.185Z,100965.92
2018-06-15T13:03:33.810Z,100981.67
2018-06-15T13:06:02.786Z,100975.55
2018-06-15T13:08:31.411Z,100979.24
2018-06-15T13:11:00.073Z,100905.16
2018-06-15T13:13:28.517Z,100959.11
2018-06-15T13:15:56.959Z,100988.31
2018-06-15T13:18:25.789Z,100982.62
2018-06-15T13:20:54.965Z,100990.06
2018-06-15T13:23:23.473Z,100988.08
2018-06-15T13:25:52.366Z,101007.92
2018-06-15T13:28:21.278Z,100986.37
2018-06-15T13:30:49.991Z,100989.89
2018-06-15T13:33:18.478Z,101013.06
2018-06-15T13:35:46.925Z,100995.25
2018-06-15T13:38:15.389Z,100975.57
2018-06-15T13:40:43.891Z,100998.12
2018-06-15T13:43:12.577Z,101003.32
2018-06-15T13:45:41.274Z,100991.70
2018-06-15T13:48:10.261Z,100995.93
2018-06-15T13:50:38.682Z,100990.51
2018-06-15T13:53:07.367Z,100999.78
2018-06-15T13:55:35.929Z,100998.41
2018-06-15T13:58:04.441Z,101007.55
2018-06-15T14:00:34.347Z,101031.61
2018-06-15T14:03:02.870Z,101000.63
2018-06-15T14:05:31.358Z,101002.05
2018-06-15T14:08:00.043Z,100996.03
2018-06-15T14:10:28.653Z,100996.84
2018-06-15T14:12:57.414Z,100991.44
2018-06-15T14:15:25.930Z,100990.44
2018-06-15T14:17:55.365Z,101004.56
2018-06-15T14:20:24.020Z,100999.11
2018-06-15T14:22:52.465Z,101000.80
2018-06-15T14:25:21.566Z,101011.02
2018-06-15T14:27:50.446Z,101010.26
2018-06-15T14:30:18.861Z,101005.84
2018-06-15T14:32:47.616Z,101001.47
2018-06-15T14:35:16.231Z,100990.89
2018-06-15T14:37:44.665Z,100991.49
2018-06-15T14:40:13.283Z,100996.97
2018-06-15T14:42:41.949Z,101018.80
2018-06-15T14:45:10.374Z,101001.02
2018-06-15T14:47:38.846Z,101007.55
2018-06-15T14:50:07.501Z,101013.34
2018-06-15T14:52:36.405Z,101012.05
2018-06-15T14:55:05.285Z,101004.38
2018-06-15T14:57:33.713Z,101016.44
2018-06-15T15:00:02.815Z,101033.72
2018-06-15T15:02:32.257Z,101023.59
2018-06-15T15:05:00.765Z,101025.36
2018-06-15T15:07:29.476Z,101029.73
2018-06-15T15:09:58.330Z,101020.97
2018-06-15T15:12:26.802Z,101024.70
2018-06-15T15:14:55.258Z,101022.59
2018-06-15T15:17:24.698Z,101026.00
2018-06-15T15:19:53.144Z,101027.42
2018-06-15T15:22:21.766Z,101028.80
2018-06-15T15:24:50.817Z,101028.12
2018-06-15T15:27:19.653Z,101033.97
2018-06-15T15:29:48.170Z,101027.75
2018-06-15T15:32:16.633Z,101022.00
2018-06-15T15:34:45.279Z,101024.10
2018-06-15T15:37:13.697Z,101035.04
2018-06-15T15:39:42.151Z,101034.09
2018-06-15T15:42:11.121Z,101040.47
2018-06-15T15:44:39.689Z,101045.72
2018-06-15T15:47:08.645Z,101038.84
2018-06-15T15:49:37.382Z,101035.77
2018-06-15T15:52:05.992Z,101042.83
2018-06-15T15:54:34.441Z,101049.27
2018-06-15T15:57:03.143Z,101054.10
2018-06-15T15:59:31.857Z,101050.16
2018-06-15T16:02:00.529Z,101042.39
2018-06-15T16:04:29.810Z,101053.45
2018-06-15T16:06:58.564Z,101064.93
2018-06-15T16:09:27.046Z,101052.73
2018-06-15T16:11:55.767Z,101050.40
2018-06-15T16:14:24.561Z,101054.77
2018-06-15T16:16:53.276Z,101050.22
2018-06-15T16:19:21.727Z,101046.40
2018-06-15T16:21:50.189Z,101055.37
2018-06-15T16:24:19.441Z,101053.28
2018-06-15T16:26:47.877Z,101059.38
2018-06-15T16:29:16.316Z,101074.13
2018-06-15T16:31:45.355Z,101056.06
2018-06-15T16:34:14.117Z,101052.84
2018-06-15T16:36:42.621Z,101058.22
2018-06-15T16:39:11.276Z,101052.81
2018-06-15T16:41:39.830Z,101053.91
2018-06-15T16:44:08.373Z,101047.36
2018-06-15T16:46:37.090Z,101055.44
2018-06-15T16:49:05.552Z,101059.83
2018-06-15T16:51:35.043Z,101062.58
2018-06-15T16:54:03.685Z,101064.76
2018-06-15T16:56:32.185Z,101063.34
2018-06-15T16:59:00.873Z,101076.73
2018-06-15T17:01:29.395Z,101065.22
2018-06-15T17:03:57.858Z,101072.53
2018-06-15T17:06:26.609Z,101071.43
2018-06-15T17:08:55.056Z,101072.81
2018-06-15T17:11:24.534Z,101072.62
2018-06-15T17:13:54.362Z,101077.46
2018-06-15T17:16:23.150Z,101088.55
2018-06-15T17:18:52.221Z,101079.50
2018-06-15T17:21:20.898Z,101074.96
2018-06-15T17:23:50.206Z,101080.10
2018-06-15T17:26:18.634Z,101078.39
2018-06-15T17:28:47.050Z,101083.63
2018-06-15T17:31:16.192Z,101099.33
2018-06-15T17:33:44.623Z,101090.42
2018-06-15T17:36:13.060Z,101086.11
2018-06-15T17:38:41.730Z,101095.58
2018-06-15T17:41:10.202Z,101096.13
2018-06-15T17:43:38.654Z,101100.14
2018-06-15T17:46:08.149Z,101106.27
2018-06-15T17:48:36.607Z,101098.06
2018-06-15T17:51:05.204Z,101098.63
2018-06-15T17:53:33.848Z,101103.17
2018-06-15T17:56:03.527Z,101102.30
2018-06-15T17:58:32.930Z,101104.94
2018-06-15T18:01:01.480Z,101115.97
2018-06-15T18:03:30.392Z,101115.67
2018-06-15T18:05:58.842Z,101115.39
2018-06-15T18:08:27.994Z,101119.38
2018-06-15T18:10:56.856Z,101114.08
2018-06-15T18:13:25.289Z,101113.28
2018-06-15T18:15:54.142Z,101116.95
2018-06-15T18:18:22.837Z,101123.64
2018-06-15T18:20:51.313Z,101122.47
2018-06-15T18:23:20.343Z,101117.16
2018-06-15T18:25:49.275Z,101126.13
2018-06-15T18:28:17.701Z,101128.45
2018-06-15T18:30:46.554Z,101122.28
2018-06-15T18:33:16.106Z,101120.52
2018-06-15T18:35:44.781Z,101126.32
2018-06-15T18:38:13.529Z,101135.22
2018-06-15T18:40:42.521Z,101128.16
2018-06-15T18:43:11.054Z,101129.53
2018-06-15T18:45:39.641Z,101130.05
2018-06-15T18:48:08.173Z,101135.44
2018-06-15T18:50:37.173Z,101138.11
2018-06-15T18:53:05.849Z,101112.55
2018-06-15T18:55:34.313Z,101144.37
2018-06-15T18:58:03.010Z,101147.50
2018-06-15T19:00:32.308Z,101148.84
2018-06-15T19:03:01.403Z,101149.32
2018-06-15T19:05:29.860Z,101156.52
2018-06-15T19:07:58.577Z,101158.78
2018-06-15T19:10:27.174Z,101165.45
2018-06-15T19:12:55.709Z,101174.76
2018-06-15T19:15:24.298Z,101170.77
2018-06-15T19:17:52.946Z,101172.08
2018-06-15T19:20:21.381Z,101180.09
2018-06-15T19:22:50.054Z,101188.55
2018-06-15T19:25:18.489Z,101191.26
2018-06-15T19:27:46.927Z,101192.25
2018-06-15T19:30:15.533Z,101192.35
2018-06-15T19:32:44.293Z,101195.91
2018-06-15T19:35:12.734Z,101202.14
2018-06-15T19:37:41.590Z,101203.09
2018-06-15T19:40:10.358Z,101206.72
2018-06-15T19:42:38.816Z,101213.42
2018-06-15T19:45:07.677Z,101209.02
2018-06-15T19:47:36.386Z,101209.49
2018-06-15T19:50:05.389Z,101214.83
2018-06-15T19:52:33.961Z,101220.16
2018-06-15T19:55:02.429Z,101220.19
2018-06-15T19:57:31.197Z,101219.74
2018-06-15T20:00:00.066Z,101222.41
2018-06-15T20:02:28.482Z,101222.42
2018-06-15T20:04:57.188Z,101217.56
2018-06-15T20:07:26.421Z,101224.22
2018-06-15T20:09:54.857Z,101225.98
2018-06-15T20:12:23.425Z,101219.34
2018-06-15T20:14:52.463Z,101229.55
2018-06-15T20:17:20.894Z,101237.09
2018-06-15T20:19:49.421Z,101233.10
2018-06-15T20:22:18.209Z,101233.11
2018-06-15T20:24:53.185Z,101234.43
2018-06-15T20:27:21.725Z,101238.42
2018-06-15T20:29:50.237Z,101235.33
2018-06-15T20:32:18.719Z,101239.31
2018-06-15T20:34:47.489Z,101238.44
2018-06-15T20:37:16.195Z,101237.11
2018-06-15T20:39:44.664Z,101235.34
2018-06-15T20:42:13.350Z,101237.11
2018-06-15T20:44:42.285Z,101241.53
2018-06-15T20:47:10.721Z,101237.98
2018-06-15T20:49:39.309Z,101240.64
2018-06-15T20:52:07.755Z,101238.87
2018-06-15T20:54:37.208Z,101244.61
2018-06-15T20:57:12.369Z,101247.23
2018-06-15T20:59:40.802Z,101252.09
2018-06-15T21:02:09.583Z,101252.09
2018-06-15T21:04:38.234Z,101261.38
2018-06-15T21:07:06.670Z,101260.92
2018-06-15T21:09:35.103Z,101266.68
2018-06-15T21:12:03.991Z,101270.20
2018-06-15T21:14:32.981Z,101271.06
2018-06-15T21:17:01.400Z,101263.97
2018-06-15T21:19:30.474Z,101269.26
2018-06-15T21:21:59.569Z,101271.93
2018-06-15T21:24:28.003Z,101274.57
2018-06-15T21:26:56.516Z,101282.08
2018-06-15T21:29:25.476Z,101284.29
2018-06-15T21:31:53.935Z,101289.60
2018-06-15T21:34:22.429Z,101292.27
2018-06-15T21:36:50.952Z,101291.39
2018-06-15T21:39:19.387Z,101298.91
2018-06-15T21:41:47.957Z,101300.23
2018-06-15T21:44:16.599Z,101298.03
2018-06-15T21:46:45.098Z,101298.02
2018-06-15T21:49:13.877Z,101290.48
2018-06-15T21:51:42.320Z,101287.82
2018-06-15T21:54:10.756Z,101286.05
2018-06-15T21:56:39.297Z,101294.42
2018-06-15T21:59:07.761Z,101299.72
2018-06-15T22:01:36.373Z,101300.56
2018-06-15T22:04:05.005Z,101299.20
2018-06-15T22:06:33.421Z,101300.93
2018-06-15T22:09:02.526Z,101301.80
2018-06-15T22:11:31.801Z,101302.68
2018-06-15T22:14:00.269Z,101305.75
2018-06-15T22:16:33.462Z,101310.16
2018-06-15T22:19:02.230Z,101305.22
2018-06-15T22:21:30.701Z,101304.73
2018-06-15T22:23:59.402Z,101297.63
2018-06-15T22:26:28.349Z,101309.52
2018-06-15T22:28:56.772Z,101309.06
2018-06-15T22:31:25.249Z,101309.46
2018-06-15T22:33:53.765Z,101311.20
2018-06-15T22:36:22.661Z,101312.94
2018-06-15T22:38:51.137Z,101320.00
2018-06-15T22:41:19.921Z,101322.63
2018-06-15T22:43:48.847Z,101316.88
2018-06-15T22:46:17.318Z,101324.38
2018-06-15T22:48:45.833Z,101319.93
2018-06-15T22:51:14.478Z,101323.43
2018-06-15T22:53:43.213Z,101325.17
2018-06-15T22:56:12.033Z,101325.16
2018-06-15T22:58:40.553Z,101323.36
2018-06-15T23:01:09.171Z,101331.70
2018-06-15T23:03:38.219Z,101325.49
2018-06-15T23:06:06.660Z,101324.57
2018-06-15T23:08:35.674Z,101325.41
2018-06-15T23:11:04.199Z,101334.22
2018-06-15T23:13:32.624Z,101335.03
2018-06-15T23:16:01.904Z,101330.05
2018-06-15T23:18:30.941Z,101332.66
2018-06-15T23:20:59.369Z,101332.64
2018-06-15T23:23:28.177Z,101333.08
2018-06-15T23:25:57.453Z,101334.85
2018-06-15T23:28:25.986Z,101334.00
2018-06-15T23:30:54.421Z,101334.47
2018-06-15T23:33:22.937Z,101339.77
2018-06-15T23:35:51.522Z,101337.15
2018-06-15T23:38:19.979Z,101340.73
2018-06-15T23:40:48.402Z,101342.05
2018-06-15T23:43:17.171Z,101343.34
2018-06-15T23:45:46.075Z,101344.25
2018-06-15T23:48:14.551Z,101346.03
2018-06-15T23:50:43.001Z,101339.39
2018-06-15T23:53:11.539Z,101346.91
2018-06-15T23:55:40.273Z,101345.55
2018-06-15T23:58:08.784Z,101349.02
